sensor_id;sensor_type;location;lat;lon;timestamp;pressure;altitude;pressure_sealevel;temperature;humidity
71805;BME280;59654;52.216;5.616;2023-03-20T00:01:13;101709.75;;;7.57;89.74
71805;BME280;59654;52.216;5.616;2023-03-20T00:01:48;101707.09;;;7.57;90.31
71805;BME280;59654;52.216;5.616;2023-03-20T00:02:22;101710.66;;;7.56;89.97
71805;BME280;59654;52.216;5.616;2023-03-20T00:02:54;101709.75;;;7.57;89.76
71805;BME280;59654;52.216;5.616;2023-03-20T00:03:25;101704.44;;;7.57;90.43
71805;BME280;59654;52.216;5.616;2023-03-20T00:03:56;101703.56;;;7.58;90.07
71805;BME280;59654;52.216;5.616;2023-03-20T00:04:27;101709.75;;;7.58;89.82
71805;BME280;59654;52.216;5.616;2023-03-20T00:04:58;101701.78;;;7.58;90.20
71805;BME280;59654;52.216;5.616;2023-03-20T00:05:30;101704.44;;;7.58;89.73
71805;BME280;59654;52.216;5.616;2023-03-20T00:06:01;101705.31;;;7.57;90.41
71805;BME280;59654;52.216;5.616;2023-03-20T00:06:32;101703.56;;;7.58;89.54
71805;BME280;59654;52.216;5.616;2023-03-20T00:07:02;101705.31;;;7.59;90.10
71805;BME280;59654;52.216;5.616;2023-03-20T00:07:33;101704.44;;;7.58;89.70
71805;BME280;59654;52.216;5.616;2023-03-20T00:08:05;101709.75;;;7.57;90.03
71805;BME280;59654;52.216;5.616;2023-03-20T00:08:36;101704.44;;;7.57;89.82
71805;BME280;59654;52.216;5.616;2023-03-20T00:09:08;101697.38;;;7.56;90.42
71805;BME280;59654;52.216;5.616;2023-03-20T00:09:41;101700.03;;;7.56;89.97
71805;BME280;59654;52.216;5.616;2023-03-20T00:10:12;101700.03;;;7.56;90.12
71805;BME280;59654;52.216;5.616;2023-03-20T00:10:45;101707.09;;;7.57;89.75
71805;BME280;59654;52.216;5.616;2023-03-20T00:11:29;101701.78;;;7.57;89.93
71805;BME280;59654;52.216;5.616;2023-03-20T00:12:03;101704.44;;;7.58;89.35
71805;BME280;59654;52.216;5.616;2023-03-20T00:12:34;101708.84;;;7.59;90.32
71805;BME280;59654;52.216;5.616;2023-03-20T00:13:09;101708.84;;;7.58;89.93
71805;BME280;59654;52.216;5.616;2023-03-20T00:13:44;101709.75;;;7.57;89.98
71805;BME280;59654;52.216;5.616;2023-03-20T00:14:18;101712.41;;;7.57;89.78
71805;BME280;59654;52.216;5.616;2023-03-20T00:14:51;101711.53;;;7.56;89.29
71805;BME280;59654;52.216;5.616;2023-03-20T00:15:26;101708.91;;;7.55;89.42
71805;BME280;59654;52.216;5.616;2023-03-20T00:15:59;101713.34;;;7.54;89.25
71805;BME280;59654;52.216;5.616;2023-03-20T00:16:34;101708.97;;;7.51;89.11
71805;BME280;59654;52.216;5.616;2023-03-20T00:17:18;101710.75;;;7.49;89.41
71805;BME280;59654;52.216;5.616;2023-03-20T00:17:50;101711.63;;;7.48;89.39
71805;BME280;59654;52.216;5.616;2023-03-20T00:18:22;101702.78;;;7.48;89.13
71805;BME280;59654;52.216;5.616;2023-03-20T00:18:55;101714.31;;;7.47;88.86
71805;BME280;59654;52.216;5.616;2023-03-20T00:19:27;101713.41;;;7.48;89.46
71805;BME280;59654;52.216;5.616;2023-03-20T00:19:59;101708.13;;;7.46;89.12
71805;BME280;59654;52.216;5.616;2023-03-20T00:20:30;101709.00;;;7.45;89.19
71805;BME280;59654;52.216;5.616;2023-03-20T00:21:00;101714.31;;;7.45;89.85
71805;BME280;59654;52.216;5.616;2023-03-20T00:21:31;101715.22;;;7.44;88.95
71805;BME280;59654;52.216;5.616;2023-03-20T00:22:03;101715.22;;;7.44;88.71
71805;BME280;59654;52.216;5.616;2023-03-20T00:22:34;101715.19;;;7.46;89.96
71805;BME280;59654;52.216;5.616;2023-03-20T00:23:05;101712.53;;;7.47;89.81
71805;BME280;59654;52.216;5.616;2023-03-20T00:23:35;101719.63;;;7.44;89.31
71805;BME280;59654;52.216;5.616;2023-03-20T00:24:06;101725.81;;;7.46;88.69
71805;BME280;59654;52.216;5.616;2023-03-20T00:24:37;101716.97;;;7.44;88.86
71805;BME280;59654;52.216;5.616;2023-03-20T00:25:13;101722.28;;;7.45;89.73
71805;BME280;59654;52.216;5.616;2023-03-20T00:25:45;101718.72;;;7.48;88.76
71805;BME280;59654;52.216;5.616;2023-03-20T00:26:18;101722.25;;;7.47;89.54
71805;BME280;59654;52.216;5.616;2023-03-20T00:26:51;101717.81;;;7.49;89.08
71805;BME280;59654;52.216;5.616;2023-03-20T00:27:22;101725.78;;;7.49;89.15
71805;BME280;59654;52.216;5.616;2023-03-20T00:27:53;101716.94;;;7.50;89.18
71805;BME280;59654;52.216;5.616;2023-03-20T00:28:34;101714.28;;;7.50;89.47
71805;BME280;59654;52.216;5.616;2023-03-20T00:29:20;101712.50;;;7.52;89.69
71805;BME280;59654;52.216;5.616;2023-03-20T00:29:53;101708.94;;;7.53;89.65
71805;BME280;59654;52.216;5.616;2023-03-20T00:30:29;101718.59;;;7.56;88.59
71805;BME280;59654;52.216;5.616;2023-03-20T00:31:00;101715.13;;;7.54;89.23
71805;BME280;59654;52.216;5.616;2023-03-20T00:31:34;101710.69;;;7.54;88.34
71805;BME280;59654;52.216;5.616;2023-03-20T00:32:11;101711.56;;;7.55;89.19
71805;BME280;59654;52.216;5.616;2023-03-20T00:32:43;101708.03;;;7.54;89.46
71805;BME280;59654;52.216;5.616;2023-03-20T00:33:14;101711.53;;;7.56;89.70
71805;BME280;59654;52.216;5.616;2023-03-20T00:33:46;101702.69;;;7.56;88.37
71805;BME280;59654;52.216;5.616;2023-03-20T00:34:19;101699.13;;;7.57;88.41
71805;BME280;59654;52.216;5.616;2023-03-20T00:34:53;101706.22;;;7.58;88.77
71805;BME280;59654;52.216;5.616;2023-03-20T00:35:30;101706.19;;;7.59;89.06
71805;BME280;59654;52.216;5.616;2023-03-20T00:36:01;101706.19;;;7.59;88.65
71805;BME280;59654;52.216;5.616;2023-03-20T00:36:32;101705.28;;;7.60;88.83
71805;BME280;59654;52.216;5.616;2023-03-20T00:37:03;101712.38;;;7.60;89.32
71805;BME280;59654;52.216;5.616;2023-03-20T00:37:34;101706.19;;;7.61;89.27
71805;BME280;59654;52.216;5.616;2023-03-20T00:38:05;101710.59;;;7.62;89.05
71805;BME280;59654;52.216;5.616;2023-03-20T00:38:38;101713.22;;;7.63;89.38
71805;BME280;59654;52.216;5.616;2023-03-20T00:39:09;101709.69;;;7.63;88.92
71805;BME280;59654;52.216;5.616;2023-03-20T00:39:40;101706.16;;;7.62;88.35
71805;BME280;59654;52.216;5.616;2023-03-20T00:40:12;101710.56;;;7.63;88.25
71805;BME280;59654;52.216;5.616;2023-03-20T00:40:45;101701.72;;;7.63;88.49
71805;BME280;59654;52.216;5.616;2023-03-20T00:42:02;101703.50;;;7.62;87.97
71805;BME280;59654;52.216;5.616;2023-03-20T00:42:37;101692.91;;;7.61;88.71
71805;BME280;59654;52.216;5.616;2023-03-20T00:43:12;101692.00;;;7.62;88.00
71805;BME280;59654;52.216;5.616;2023-03-20T00:43:43;101692.91;;;7.61;88.83
71805;BME280;59654;52.216;5.616;2023-03-20T00:44:32;101690.25;;;7.61;88.93
71805;BME280;59654;52.216;5.616;2023-03-20T00:45:18;101689.34;;;7.62;88.37
71805;BME280;59654;52.216;5.616;2023-03-20T00:45:50;101683.16;;;7.61;88.30
71805;BME280;59654;52.216;5.616;2023-03-20T00:46:22;101684.06;;;7.60;88.35
71805;BME280;59654;52.216;5.616;2023-03-20T00:46:57;101686.72;;;7.60;88.07
71805;BME280;59654;52.216;5.616;2023-03-20T00:47:36;101687.59;;;7.61;88.63
71805;BME280;59654;52.216;5.616;2023-03-20T00:48:14;101685.84;;;7.60;89.02
71805;BME280;59654;52.216;5.616;2023-03-20T00:48:47;101684.06;;;7.60;88.88
71805;BME280;59654;52.216;5.616;2023-03-20T00:49:34;101692.03;;;7.59;88.54
71805;BME280;59654;52.216;5.616;2023-03-20T00:50:22;101691.16;;;7.60;88.85
71805;BME280;59654;52.216;5.616;2023-03-20T00:50:55;101694.72;;;7.56;88.80
71805;BME280;59654;52.216;5.616;2023-03-20T00:51:28;101693.88;;;7.55;88.41
71805;BME280;59654;52.216;5.616;2023-03-20T00:52:01;101697.38;;;7.57;89.58
71805;BME280;59654;52.216;5.616;2023-03-20T00:52:32;101697.34;;;7.59;88.62
71805;BME280;59654;52.216;5.616;2023-03-20T00:53:04;101706.19;;;7.59;89.17
71805;BME280;59654;52.216;5.616;2023-03-20T00:53:36;101703.56;;;7.58;89.10
71805;BME280;59654;52.216;5.616;2023-03-20T00:54:16;101702.66;;;7.59;88.57
71805;BME280;59654;52.216;5.616;2023-03-20T00:54:47;101707.97;;;7.59;89.33
71805;BME280;59654;52.216;5.616;2023-03-20T00:55:22;101713.28;;;7.59;88.70
71805;BME280;59654;52.216;5.616;2023-03-20T00:55:54;101714.16;;;7.59;88.74
71805;BME280;59654;52.216;5.616;2023-03-20T00:56:32;101723.88;;;7.60;89.12
71805;BME280;59654;52.216;5.616;2023-03-20T00:57:06;101723.00;;;7.60;89.39
71805;BME280;59654;52.216;5.616;2023-03-20T00:57:49;101724.81;;;7.56;88.44
71805;BME280;59654;52.216;5.616;2023-03-20T00:58:22;101734.50;;;7.59;89.39
71805;BME280;59654;52.216;5.616;2023-03-20T00:58:52;101727.44;;;7.58;88.99
71805;BME280;59654;52.216;5.616;2023-03-20T00:59:29;101733.63;;;7.57;89.43
71805;BME280;59654;52.216;5.616;2023-03-20T01:00:34;101733.63;;;7.57;89.51
71805;BME280;59654;52.216;5.616;2023-03-20T01:01:08;101734.53;;;7.56;89.13
71805;BME280;59654;52.216;5.616;2023-03-20T01:01:38;101732.81;;;7.55;89.02
71805;BME280;59654;52.216;5.616;2023-03-20T01:02:10;101736.34;;;7.55;89.75
71805;BME280;59654;52.216;5.616;2023-03-20T01:02:41;101738.06;;;7.56;89.74
71805;BME280;59654;52.216;5.616;2023-03-20T01:03:24;101728.38;;;7.55;88.65
71805;BME280;59654;52.216;5.616;2023-03-20T01:03:59;101734.59;;;7.51;88.81
71805;BME280;59654;52.216;5.616;2023-03-20T01:04:37;101738.13;;;7.55;89.73
71805;BME280;59654;52.216;5.616;2023-03-20T01:05:10;101742.53;;;7.54;89.57
71805;BME280;59654;52.216;5.616;2023-03-20T01:05:44;101736.38;;;7.52;89.09
71805;BME280;59654;52.216;5.616;2023-03-20T01:06:15;101746.09;;;7.51;89.25
71805;BME280;59654;52.216;5.616;2023-03-20T01:06:48;101750.53;;;7.51;89.83
71805;BME280;59654;52.216;5.616;2023-03-20T01:07:19;101749.66;;;7.49;88.95
71805;BME280;59654;52.216;5.616;2023-03-20T01:07:51;101760.25;;;7.54;88.89
71805;BME280;59654;52.216;5.616;2023-03-20T01:08:23;101768.22;;;7.52;89.66
71805;BME280;59654;52.216;5.616;2023-03-20T01:08:55;101756.69;;;7.53;89.00
71805;BME280;59654;52.216;5.616;2023-03-20T01:09:29;101763.81;;;7.51;89.91
71805;BME280;59654;52.216;5.616;2023-03-20T01:10:00;101761.16;;;7.49;89.48
71805;BME280;59654;52.216;5.616;2023-03-20T01:10:32;101760.28;;;7.47;88.92
71805;BME280;59654;52.216;5.616;2023-03-20T01:11:08;101761.19;;;7.46;88.91
71805;BME280;59654;52.216;5.616;2023-03-20T01:11:43;101761.16;;;7.48;89.31
71805;BME280;59654;52.216;5.616;2023-03-20T01:12:15;101764.72;;;7.48;89.86
71805;BME280;59654;52.216;5.616;2023-03-20T01:12:47;101764.72;;;7.48;89.42
71805;BME280;59654;52.216;5.616;2023-03-20T01:13:24;101770.94;;;7.43;88.69
71805;BME280;59654;52.216;5.616;2023-03-20T01:13:56;101761.22;;;7.43;89.79
71805;BME280;59654;52.216;5.616;2023-03-20T01:14:28;101756.81;;;7.41;88.64
71805;BME280;59654;52.216;5.616;2023-03-20T01:14:59;101761.28;;;7.37;89.49
71805;BME280;59654;52.216;5.616;2023-03-20T01:15:32;101763.06;;;7.38;89.54
71805;BME280;59654;52.216;5.616;2023-03-20T01:16:04;101761.22;;;7.40;89.55
71805;BME280;59654;52.216;5.616;2023-03-20T01:16:35;101760.34;;;7.41;89.79
71805;BME280;59654;52.216;5.616;2023-03-20T01:17:17;101756.81;;;7.41;89.05
71805;BME280;59654;52.216;5.616;2023-03-20T01:17:49;101762.13;;;7.41;89.22
71805;BME280;59654;52.216;5.616;2023-03-20T01:18:22;101756.78;;;7.42;89.76
71805;BME280;59654;52.216;5.616;2023-03-20T01:18:53;101756.81;;;7.39;89.28
71805;BME280;59654;52.216;5.616;2023-03-20T01:19:25;101756.88;;;7.38;88.49
71805;BME280;59654;52.216;5.616;2023-03-20T01:19:55;101756.00;;;7.37;89.32
71805;BME280;59654;52.216;5.616;2023-03-20T01:20:28;101762.19;;;7.35;89.59
71805;BME280;59654;52.216;5.616;2023-03-20T01:21:00;101753.38;;;7.34;88.45
71805;BME280;59654;52.216;5.616;2023-03-20T01:21:31;101751.56;;;7.36;88.62
71805;BME280;59654;52.216;5.616;2023-03-20T01:22:02;101752.44;;;7.38;88.75
71805;BME280;59654;52.216;5.616;2023-03-20T01:22:33;101754.22;;;7.38;89.42
71805;BME280;59654;52.216;5.616;2023-03-20T01:23:05;101753.34;;;7.37;89.77
71805;BME280;59654;52.216;5.616;2023-03-20T01:23:35;101751.53;;;7.39;89.55
71805;BME280;59654;52.216;5.616;2023-03-20T01:24:07;101744.47;;;7.38;88.78
71805;BME280;59654;52.216;5.616;2023-03-20T01:24:38;101746.28;;;7.36;89.03
71805;BME280;59654;52.216;5.616;2023-03-20T01:25:09;101747.16;;;7.35;89.69
71805;BME280;59654;52.216;5.616;2023-03-20T01:25:41;101748.91;;;7.38;89.34
71805;BME280;59654;52.216;5.616;2023-03-20T01:26:33;101744.50;;;7.35;89.45
71805;BME280;59654;52.216;5.616;2023-03-20T01:27:17;101748.97;;;7.32;89.21
71805;BME280;59654;52.216;5.616;2023-03-20T01:27:51;101749.84;;;7.32;89.08
71805;BME280;59654;52.216;5.616;2023-03-20T01:28:23;101747.19;;;7.32;89.59
71805;BME280;59654;52.216;5.616;2023-03-20T01:28:54;101738.34;;;7.33;89.57
71805;BME280;59654;52.216;5.616;2023-03-20T01:29:25;101745.38;;;7.36;88.70
71805;BME280;59654;52.216;5.616;2023-03-20T01:29:57;101742.72;;;7.37;89.41
71805;BME280;59654;52.216;5.616;2023-03-20T01:30:30;101736.53;;;7.38;89.60
71805;BME280;59654;52.216;5.616;2023-03-20T01:31:01;101740.00;;;7.42;89.28
71805;BME280;59654;52.216;5.616;2023-03-20T01:31:34;101736.47;;;7.41;89.10
71805;BME280;59654;52.216;5.616;2023-03-20T01:32:15;101737.34;;;7.42;89.16
71805;BME280;59654;52.216;5.616;2023-03-20T01:32:52;101743.53;;;7.41;88.86
71805;BME280;59654;52.216;5.616;2023-03-20T01:33:23;101742.66;;;7.40;88.94
71805;BME280;59654;52.216;5.616;2023-03-20T01:33:58;101743.53;;;7.41;88.50
71805;BME280;59654;52.216;5.616;2023-03-20T01:34:29;101751.50;;;7.41;89.55
71805;BME280;59654;52.216;5.616;2023-03-20T01:35:00;101740.00;;;7.42;89.48
71805;BME280;59654;52.216;5.616;2023-03-20T01:35:31;101745.28;;;7.45;89.03
71805;BME280;59654;52.216;5.616;2023-03-20T01:36:09;101741.72;;;7.46;89.29
71805;BME280;59654;52.216;5.616;2023-03-20T01:36:48;101743.50;;;7.45;89.64
71805;BME280;59654;52.216;5.616;2023-03-20T01:37:24;101742.63;;;7.45;88.60
71805;BME280;59654;52.216;5.616;2023-03-20T01:37:57;101753.22;;;7.46;88.61
71805;BME280;59654;52.216;5.616;2023-03-20T01:38:28;101741.72;;;7.47;88.67
71805;BME280;59654;52.216;5.616;2023-03-20T01:39:02;101744.38;;;7.47;88.51
71805;BME280;59654;52.216;5.616;2023-03-20T01:39:35;101741.69;;;7.49;88.47
71805;BME280;59654;52.216;5.616;2023-03-20T01:40:18;101748.78;;;7.48;88.41
71805;BME280;59654;52.216;5.616;2023-03-20T01:41:11;101751.47;;;7.45;87.83
71805;BME280;59654;52.216;5.616;2023-03-20T01:41:45;101751.47;;;7.45;89.14
71805;BME280;59654;52.216;5.616;2023-03-20T01:42:16;101745.25;;;7.48;88.16
71805;BME280;59654;52.216;5.616;2023-03-20T01:42:48;101758.53;;;7.46;89.25
71805;BME280;59654;52.216;5.616;2023-03-20T01:43:21;101753.25;;;7.42;87.99
71805;BME280;59654;52.216;5.616;2023-03-20T01:43:53;101759.44;;;7.42;88.46
71805;BME280;59654;52.216;5.616;2023-03-20T01:44:30;101754.13;;;7.44;88.31
71805;BME280;59654;52.216;5.616;2023-03-20T01:45:15;101751.47;;;7.44;88.12
71805;BME280;59654;52.216;5.616;2023-03-20T01:46:38;101750.59;;;7.45;88.15
71805;BME280;59654;52.216;5.616;2023-03-20T01:47:22;101747.91;;;7.46;88.45
71805;BME280;59654;52.216;5.616;2023-03-20T01:47:58;101747.91;;;7.46;88.14
71805;BME280;59654;52.216;5.616;2023-03-20T01:51:00;101739.06;;;7.46;88.22
71805;BME280;59654;52.216;5.616;2023-03-20T01:51:31;101744.38;;;7.47;88.11
71805;BME280;59654;52.216;5.616;2023-03-20T01:52:09;101740.81;;;7.48;88.37
71805;BME280;59654;52.216;5.616;2023-03-20T01:52:40;101745.25;;;7.49;88.41
71805;BME280;59654;52.216;5.616;2023-03-20T01:53:19;101740.81;;;7.50;88.26
71805;BME280;59654;52.216;5.616;2023-03-20T01:54:05;101747.00;;;7.50;88.20
71805;BME280;59654;52.216;5.616;2023-03-20T01:55:01;101741.72;;;7.47;87.45
71805;BME280;59654;52.216;5.616;2023-03-20T01:55:35;101741.72;;;7.47;87.10
71805;BME280;59654;52.216;5.616;2023-03-20T01:56:11;101739.94;;;7.49;87.54
71805;BME280;59654;52.216;5.616;2023-03-20T01:56:58;101734.63;;;7.49;86.85
71805;BME280;59654;52.216;5.616;2023-03-20T01:57:32;101740.78;;;7.51;87.19
71805;BME280;59654;52.216;5.616;2023-03-20T01:58:07;101736.38;;;7.52;87.09
71805;BME280;59654;52.216;5.616;2023-03-20T01:58:47;101746.09;;;7.53;87.34
71805;BME280;59654;52.216;5.616;2023-03-20T01:59:32;101743.44;;;7.51;87.09
71805;BME280;59654;52.216;5.616;2023-03-20T02:00:10;101741.66;;;7.54;87.46
71805;BME280;59654;52.216;5.616;2023-03-20T02:00:46;101738.13;;;7.55;87.92
71805;BME280;59654;52.216;5.616;2023-03-20T02:01:24;101733.69;;;7.54;87.27
71805;BME280;59654;52.216;5.616;2023-03-20T02:01:57;101733.69;;;7.54;87.02
71805;BME280;59654;52.216;5.616;2023-03-20T02:02:30;101733.69;;;7.54;86.65
71805;BME280;59654;52.216;5.616;2023-03-20T02:03:03;101733.69;;;7.54;87.36
71805;BME280;59654;52.216;5.616;2023-03-20T02:03:59;101736.38;;;7.50;86.93
71805;BME280;59654;52.216;5.616;2023-03-20T02:04:40;101736.38;;;7.50;86.91
71805;BME280;59654;52.216;5.616;2023-03-20T02:05:46;101732.84;;;7.50;86.62
71805;BME280;59654;52.216;5.616;2023-03-20T02:08:15;101724.00;;;7.49;87.00
71805;BME280;59654;52.216;5.616;2023-03-20T02:09:26;101714.28;;;7.48;86.89
71805;BME280;59654;52.216;5.616;2023-03-20T02:10:20;101701.91;;;7.47;86.48
71805;BME280;59654;52.216;5.616;2023-03-20T02:11:26;101697.50;;;7.48;85.67
71805;BME280;59654;52.216;5.616;2023-03-20T02:12:15;101697.53;;;7.45;86.05
71805;BME280;59654;52.216;5.616;2023-03-20T02:12:47;101701.06;;;7.45;86.29
71805;BME280;59654;52.216;5.616;2023-03-20T02:13:28;101717.84;;;7.47;86.06
71805;BME280;59654;52.216;5.616;2023-03-20T02:14:01;101713.41;;;7.48;86.56
71805;BME280;59654;52.216;5.616;2023-03-20T02:14:43;101719.63;;;7.45;85.66
71805;BME280;59654;52.216;5.616;2023-03-20T02:15:26;101723.19;;;7.44;85.99
71805;BME280;59654;52.216;5.616;2023-03-20T02:16:18;101725.84;;;7.43;86.23
71805;BME280;59654;52.216;5.616;2023-03-20T02:17:13;101721.44;;;7.40;86.49
71805;BME280;59654;52.216;5.616;2023-03-20T02:17:52;101719.66;;;7.41;86.53
71805;BME280;59654;52.216;5.616;2023-03-20T02:18:23;101720.53;;;7.41;87.04
71805;BME280;59654;52.216;5.616;2023-03-20T02:18:56;101725.88;;;7.40;86.82
71805;BME280;59654;52.216;5.616;2023-03-20T02:24:50;101698.53;;;7.35;86.54
71805;BME280;59654;52.216;5.616;2023-03-20T02:26:37;101699.38;;;7.38;87.45
71805;BME280;59654;52.216;5.616;2023-03-20T02:31:48;101711.84;;;7.30;87.40
71805;BME280;59654;52.216;5.616;2023-03-20T02:35:10;101708.34;;;7.27;87.82
71805;BME280;59654;52.216;5.616;2023-03-20T02:36:10;101710.09;;;7.26;87.42
71805;BME280;59654;52.216;5.616;2023-03-20T02:43:36;101718.06;;;7.26;86.94
71805;BME280;59654;52.216;5.616;2023-03-20T02:44:22;101710.97;;;7.28;88.03
71805;BME280;59654;52.216;5.616;2023-03-20T02:47:37;101699.47;;;7.28;86.93
71805;BME280;59654;52.216;5.616;2023-03-20T02:54:38;101712.84;;;7.19;87.28
71805;BME280;59654;52.216;5.616;2023-03-20T02:56:11;101712.84;;;7.20;87.31
71805;BME280;59654;52.216;5.616;2023-03-20T02:57:46;101710.19;;;7.19;87.25
71805;BME280;59654;52.216;5.616;2023-03-20T02:59:28;101713.72;;;7.17;85.94
71805;BME280;59654;52.216;5.616;2023-03-20T03:00:39;101702.22;;;7.17;85.76
71805;BME280;59654;52.216;5.616;2023-03-20T03:01:46;101694.28;;;7.15;85.96
71805;BME280;59654;52.216;5.616;2023-03-20T03:02:33;101707.56;;;7.14;85.57
71805;BME280;59654;52.216;5.616;2023-03-20T03:03:14;101698.72;;;7.12;85.96
71805;BME280;59654;52.216;5.616;2023-03-20T03:03:56;101700.50;;;7.13;86.56
71805;BME280;59654;52.216;5.616;2023-03-20T03:04:37;101702.25;;;7.14;86.65
71805;BME280;59654;52.216;5.616;2023-03-20T03:05:16;101691.66;;;7.14;86.49
71805;BME280;59654;52.216;5.616;2023-03-20T03:06:16;101696.06;;;7.13;85.96
71805;BME280;59654;52.216;5.616;2023-03-20T03:06:55;101696.97;;;7.11;85.62
71805;BME280;59654;52.216;5.616;2023-03-20T03:07:32;101696.09;;;7.12;85.73
71805;BME280;59654;52.216;5.616;2023-03-20T03:08:07;101689.88;;;7.13;85.97
71805;BME280;59654;52.216;5.616;2023-03-20T03:08:48;101689.88;;;7.13;86.64
71805;BME280;59654;52.216;5.616;2023-03-20T03:09:27;101689.88;;;7.14;86.68
71805;BME280;59654;52.216;5.616;2023-03-20T03:10:14;101687.22;;;7.14;86.71
71805;BME280;59654;52.216;5.616;2023-03-20T03:11:04;101681.03;;;7.14;86.43
71805;BME280;59654;52.216;5.616;2023-03-20T03:11:42;101676.63;;;7.13;86.59
71805;BME280;59654;52.216;5.616;2023-03-20T03:12:22;101676.63;;;7.11;86.11
71805;BME280;59654;52.216;5.616;2023-03-20T03:13:00;101671.34;;;7.11;86.65
71805;BME280;59654;52.216;5.616;2023-03-20T03:13:41;101668.69;;;7.10;86.04
71805;BME280;59654;52.216;5.616;2023-03-20T03:14:36;101672.25;;;7.07;85.59
71805;BME280;59654;52.216;5.616;2023-03-20T03:15:31;101659.94;;;7.05;86.67
71805;BME280;59654;52.216;5.616;2023-03-20T03:16:16;101659.06;;;7.03;85.50
71805;BME280;59654;52.216;5.616;2023-03-20T03:16:53;101656.44;;;7.01;85.98
71805;BME280;59654;52.216;5.616;2023-03-20T03:17:30;101647.63;;;6.99;86.25
71805;BME280;59654;52.216;5.616;2023-03-20T03:18:06;101651.16;;;6.98;85.25
71805;BME280;59654;52.216;5.616;2023-03-20T03:18:44;101654.69;;;6.97;86.22
71805;BME280;59654;52.216;5.616;2023-03-20T03:19:21;101647.66;;;6.95;86.28
71805;BME280;59654;52.216;5.616;2023-03-20T03:20:04;101650.31;;;6.93;85.90
71805;BME280;59654;52.216;5.616;2023-03-20T03:20:43;101650.31;;;6.95;86.34
71805;BME280;59654;52.216;5.616;2023-03-20T03:21:17;101648.53;;;6.95;86.29
71805;BME280;59654;52.216;5.616;2023-03-20T03:21:49;101642.38;;;6.92;85.36
71805;BME280;59654;52.216;5.616;2023-03-20T03:22:21;101640.59;;;6.92;86.08
71805;BME280;59654;52.216;5.616;2023-03-20T03:22:54;101646.84;;;6.90;85.74
71805;BME280;59654;52.216;5.616;2023-03-20T03:23:59;101654.81;;;6.88;86.11
71805;BME280;59654;52.216;5.616;2023-03-20T03:24:41;101649.50;;;6.90;85.87
71805;BME280;59654;52.216;5.616;2023-03-20T03:25:14;101647.72;;;6.89;85.80
71805;BME280;59654;52.216;5.616;2023-03-20T03:25:45;101656.56;;;6.89;86.36
71805;BME280;59654;52.216;5.616;2023-03-20T03:26:24;101654.78;;;6.90;86.85
71805;BME280;59654;52.216;5.616;2023-03-20T03:27:39;101652.09;;;6.91;86.84
71805;BME280;59654;52.216;5.616;2023-03-20T03:28:57;101652.09;;;6.93;86.90
71805;BME280;59654;52.216;5.616;2023-03-20T03:29:35;101651.19;;;6.94;85.74
71805;BME280;59654;52.216;5.616;2023-03-20T03:30:13;101650.31;;;6.92;85.50
71805;BME280;59654;52.216;5.616;2023-03-20T03:30:50;101642.44;;;6.89;85.96
71805;BME280;59654;52.216;5.616;2023-03-20T03:31:26;101642.44;;;6.89;86.09
71805;BME280;59654;52.216;5.616;2023-03-20T03:32:01;101641.53;;;6.90;86.64
71805;BME280;59654;52.216;5.616;2023-03-20T03:32:39;101643.25;;;6.91;86.09
71805;BME280;59654;52.216;5.616;2023-03-20T03:33:23;101645.06;;;6.90;85.85
71805;BME280;59654;52.216;5.616;2023-03-20T03:34:00;101640.63;;;6.91;86.42
71805;BME280;59654;52.216;5.616;2023-03-20T03:34:34;101645.91;;;6.91;85.82
71805;BME280;59654;52.216;5.616;2023-03-20T03:35:05;101642.41;;;6.90;86.66
71805;BME280;59654;52.216;5.616;2023-03-20T03:35:39;101640.63;;;6.91;86.01
71805;BME280;59654;52.216;5.616;2023-03-20T03:37:43;101632.72;;;6.88;86.17
71805;BME280;59654;52.216;5.616;2023-03-20T03:38:27;101639.78;;;6.87;85.81
71805;BME280;59654;52.216;5.616;2023-03-20T03:39:19;101648.63;;;6.86;86.13
71805;BME280;59654;52.216;5.616;2023-03-20T03:42:11;101645.16;;;6.79;86.81
71805;BME280;59654;52.216;5.616;2023-03-20T03:43:07;101646.94;;;6.79;86.56
71805;BME280;59654;52.216;5.616;2023-03-20T03:43:57;101650.47;;;6.79;86.56
71805;BME280;59654;52.216;5.616;2023-03-20T03:45:17;101645.16;;;6.78;86.60
71805;BME280;59654;52.216;5.616;2023-03-20T03:46:16;101647.81;;;6.76;86.74
71805;BME280;59654;52.216;5.616;2023-03-20T03:47:00;101649.59;;;6.77;85.92
71805;BME280;59654;52.216;5.616;2023-03-20T03:47:39;101651.38;;;6.75;86.62
71805;BME280;59654;52.216;5.616;2023-03-20T03:48:20;101652.25;;;6.74;86.14
71805;BME280;59654;52.216;5.616;2023-03-20T03:48:57;101651.38;;;6.75;86.73
71805;BME280;59654;52.216;5.616;2023-03-20T03:49:37;101647.81;;;6.76;86.79
71805;BME280;59654;52.216;5.616;2023-03-20T03:50:23;101647.84;;;6.75;86.46
71805;BME280;59654;52.216;5.616;2023-03-20T03:51:08;101647.84;;;6.75;86.49
71805;BME280;59654;52.216;5.616;2023-03-20T03:51:57;101642.59;;;6.72;86.14
71805;BME280;59654;52.216;5.616;2023-03-20T03:52:32;101642.59;;;6.70;85.93
71805;BME280;59654;52.216;5.616;2023-03-20T03:53:11;101643.50;;;6.69;86.13
71805;BME280;59654;52.216;5.616;2023-03-20T03:53:51;101640.88;;;6.66;86.56
71805;BME280;59654;52.216;5.616;2023-03-20T03:54:48;101632.91;;;6.69;87.03
71805;BME280;59654;52.216;5.616;2023-03-20T03:55:53;101625.84;;;6.67;86.71
71805;BME280;59654;52.216;5.616;2023-03-20T03:56:31;101632.03;;;6.66;86.32
71805;BME280;59654;52.216;5.616;2023-03-20T03:57:07;101625.00;;;6.65;86.80
71805;BME280;59654;52.216;5.616;2023-03-20T03:57:58;101624.09;;;6.64;87.13
71805;BME280;59654;52.216;5.616;2023-03-20T03:58:41;101628.50;;;6.65;87.06
71805;BME280;59654;52.216;5.616;2023-03-20T03:59:25;101625.88;;;6.64;87.00
71805;BME280;59654;52.216;5.616;2023-03-20T04:00:03;101628.50;;;6.65;86.49
71805;BME280;59654;52.216;5.616;2023-03-20T04:00:47;101625.88;;;6.65;86.82
71805;BME280;59654;52.216;5.616;2023-03-20T04:01:22;101632.03;;;6.67;86.72
71805;BME280;59654;52.216;5.616;2023-03-20T04:01:57;101632.03;;;6.67;86.17
71805;BME280;59654;52.216;5.616;2023-03-20T04:02:29;101642.63;;;6.67;86.66